sensor_id;sensor_type;location;lat;lon;timestamp;temperature;humidity
52513;DHT22;38422;53.172;6.974;2023-06-14T00:00:48;21.20;63.60
52513;DHT22;38422;53.172;6.974;2023-06-14T00:03:14;21.20;64.50
52513;DHT22;38422;53.172;6.974;2023-06-14T00:05:43;21.10;64.10
52513;DHT22;38422;53.172;6.974;2023-06-14T00:08:10;21.10;64.30
52513;DHT22;38422;53.172;6.974;2023-06-14T00:10:36;21.10;64.40
52513;DHT22;38422;53.172;6.974;2023-06-14T00:13:03;21.00;65.60
52513;DHT22;38422;53.172;6.974;2023-06-14T00:15:30;21.00;64.80
52513;DHT22;38422;53.172;6.974;2023-06-14T00:17:56;21.00;65.00
52513;DHT22;38422;53.172;6.974;2023-06-14T00:20:25;20.90;66.30
52513;DHT22;38422;53.172;6.974;2023-06-14T00:22:51;20.80;65.90
52513;DHT22;38422;53.172;6.974;2023-06-14T00:25:17;20.80;65.60
52513;DHT22;38422;53.172;6.974;2023-06-14T00:27:43;20.80;65.90
52513;DHT22;38422;53.172;6.974;2023-06-14T00:30:09;20.70;66.10
52513;DHT22;38422;53.172;6.974;2023-06-14T00:32:35;20.70;66.40
52513;DHT22;38422;53.172;6.974;2023-06-14T00:35:01;20.60;66.70
52513;DHT22;38422;53.172;6.974;2023-06-14T00:37:26;20.60;66.80
52513;DHT22;38422;53.172;6.974;2023-06-14T00:39:52;20.50;67.50
52513;DHT22;38422;53.172;6.974;2023-06-14T00:42:25;20.50;67.20
52513;DHT22;38422;53.172;6.974;2023-06-14T00:44:51;20.50;67.50
52513;DHT22;38422;53.172;6.974;2023-06-14T00:47:17;20.40;67.50
52513;DHT22;38422;53.172;6.974;2023-06-14T00:49:44;20.40;67.60
52513;DHT22;38422;53.172;6.974;2023-06-14T00:52:10;20.40;67.90
52513;DHT22;38422;53.172;6.974;2023-06-14T00:54:39;20.40;68.10
52513;DHT22;38422;53.172;6.974;2023-06-14T00:57:05;20.30;68.20
52513;DHT22;38422;53.172;6.974;2023-06-14T00:59:31;20.30;68.40
52513;DHT22;38422;53.172;6.974;2023-06-14T01:01:57;20.20;68.70
52513;DHT22;38422;53.172;6.974;2023-06-14T01:04:23;20.00;69.20
52513;DHT22;38422;53.172;6.974;2023-06-14T01:07:09;19.90;69.30
52513;DHT22;38422;53.172;6.974;2023-06-14T01:13:09;19.80;70.10
52513;DHT22;38422;53.172;6.974;2023-06-14T01:15:37;19.80;70.30
52513;DHT22;38422;53.172;6.974;2023-06-14T01:18:04;19.70;70.20
52513;DHT22;38422;53.172;6.974;2023-06-14T01:20:32;19.70;70.30
52513;DHT22;38422;53.172;6.974;2023-06-14T01:22:58;19.70;70.50
52513;DHT22;38422;53.172;6.974;2023-06-14T01:25:24;19.60;70.60
52513;DHT22;38422;53.172;6.974;2023-06-14T01:27:53;19.60;70.80
52513;DHT22;38422;53.172;6.974;2023-06-14T01:30:21;19.60;71.10
52513;DHT22;38422;53.172;6.974;2023-06-14T01:32:48;19.50;71.30
52513;DHT22;38422;53.172;6.974;2023-06-14T01:35:16;19.50;71.60
52513;DHT22;38422;53.172;6.974;2023-06-14T01:37:42;19.40;71.70
52513;DHT22;38422;53.172;6.974;2023-06-14T01:40:09;19.40;72.00
52513;DHT22;38422;53.172;6.974;2023-06-14T01:42:37;19.40;72.00
52513;DHT22;38422;53.172;6.974;2023-06-14T01:45:07;19.30;72.50
52513;DHT22;38422;53.172;6.974;2023-06-14T01:47:34;19.20;72.60
52513;DHT22;38422;53.172;6.974;2023-06-14T01:50:02;19.10;72.90
52513;DHT22;38422;53.172;6.974;2023-06-14T01:52:28;19.00;73.20
52513;DHT22;38422;53.172;6.974;2023-06-14T01:54:53;18.90;74.80
52513;DHT22;38422;53.172;6.974;2023-06-14T01:57:19;18.90;73.50
52513;DHT22;38422;53.172;6.974;2023-06-14T01:59:46;18.80;73.90
52513;DHT22;38422;53.172;6.974;2023-06-14T02:02:14;18.90;74.20
52513;DHT22;38422;53.172;6.974;2023-06-14T02:04:39;18.90;74.20
52513;DHT22;38422;53.172;6.974;2023-06-14T02:07:05;18.90;74.30
52513;DHT22;38422;53.172;6.974;2023-06-14T02:09:31;18.80;74.50
52513;DHT22;38422;53.172;6.974;2023-06-14T02:11:56;18.80;74.60
52513;DHT22;38422;53.172;6.974;2023-06-14T02:14:22;18.90;74.80
52513;DHT22;38422;53.172;6.974;2023-06-14T02:16:48;18.80;74.70
52513;DHT22;38422;53.172;6.974;2023-06-14T02:19:18;18.80;74.90
52513;DHT22;38422;53.172;6.974;2023-06-14T02:21:44;18.80;75.20
52513;DHT22;38422;53.172;6.974;2023-06-14T02:24:10;18.70;75.30
52513;DHT22;38422;53.172;6.974;2023-06-14T02:26:36;18.70;75.40
52513;DHT22;38422;53.172;6.974;2023-06-14T02:29:06;18.70;75.60
52513;DHT22;38422;53.172;6.974;2023-06-14T02:31:35;18.60;75.80
52513;DHT22;38422;53.172;6.974;2023-06-14T02:34:01;18.50;76.00
52513;DHT22;38422;53.172;6.974;2023-06-14T02:36:27;18.50;76.30
52513;DHT22;38422;53.172;6.974;2023-06-14T02:38:55;18.50;76.40
52513;DHT22;38422;53.172;6.974;2023-06-14T02:41:23;18.40;76.70
52513;DHT22;38422;53.172;6.974;2023-06-14T02:43:49;18.40;77.00
52513;DHT22;38422;53.172;6.974;2023-06-14T02:46:15;18.30;77.10
52513;DHT22;38422;53.172;6.974;2023-06-14T02:48:41;18.30;77.20
52513;DHT22;38422;53.172;6.974;2023-06-14T02:51:06;18.30;77.50
52513;DHT22;38422;53.172;6.974;2023-06-14T02:53:34;18.30;77.30
52513;DHT22;38422;53.172;6.974;2023-06-14T02:56:00;18.30;77.70
52513;DHT22;38422;53.172;6.974;2023-06-14T02:58:26;18.30;77.60
52513;DHT22;38422;53.172;6.974;2023-06-14T03:00:52;18.30;77.90
52513;DHT22;38422;53.172;6.974;2023-06-14T03:03:21;18.20;78.00
52513;DHT22;38422;53.172;6.974;2023-06-14T03:05:48;18.20;78.10
52513;DHT22;38422;53.172;6.974;2023-06-14T03:08:18;18.20;78.20
52513;DHT22;38422;53.172;6.974;2023-06-14T03:10:46;18.30;78.40
52513;DHT22;38422;53.172;6.974;2023-06-14T03:13:13;18.20;78.50
52513;DHT22;38422;53.172;6.974;2023-06-14T03:15:38;18.20;78.60
52513;DHT22;38422;53.172;6.974;2023-06-14T03:18:08;18.20;78.90
52513;DHT22;38422;53.172;6.974;2023-06-14T03:20:35;18.10;79.00
52513;DHT22;38422;53.172;6.974;2023-06-14T03:23:02;18.10;79.10
52513;DHT22;38422;53.172;6.974;2023-06-14T03:25:28;18.10;79.20
52513;DHT22;38422;53.172;6.974;2023-06-14T03:27:58;18.10;79.50
52513;DHT22;38422;53.172;6.974;2023-06-14T03:30:24;18.10;79.60
52513;DHT22;38422;53.172;6.974;2023-06-14T03:32:49;18.10;79.70
52513;DHT22;38422;53.172;6.974;2023-06-14T03:35:19;18.10;79.90
52513;DHT22;38422;53.172;6.974;2023-06-14T03:37:45;18.10;80.10
52513;DHT22;38422;53.172;6.974;2023-06-14T03:40:12;18.00;80.10
52513;DHT22;38422;53.172;6.974;2023-06-14T03:42:39;18.00;80.30
52513;DHT22;38422;53.172;6.974;2023-06-14T03:45:05;18.00;80.60
52513;DHT22;38422;53.172;6.974;2023-06-14T03:47:31;18.00;80.70
52513;DHT22;38422;53.172;6.974;2023-06-14T03:49:57;17.90;80.80
52513;DHT22;38422;53.172;6.974;2023-06-14T03:52:23;18.00;81.00
52513;DHT22;38422;53.172;6.974;2023-06-14T03:54:49;18.00;81.10
52513;DHT22;38422;53.172;6.974;2023-06-14T03:57:15;18.00;81.10
52513;DHT22;38422;53.172;6.974;2023-06-14T03:59:41;18.00;81.10
52513;DHT22;38422;53.172;6.974;2023-06-14T04:02:07;17.90;81.30
52513;DHT22;38422;53.172;6.974;2023-06-14T04:04:36;17.90;81.40
52513;DHT22;38422;53.172;6.974;2023-06-14T04:07:02;17.90;81.60
52513;DHT22;38422;53.172;6.974;2023-06-14T04:09:31;17.90;81.80
52513;DHT22;38422;53.172;6.974;2023-06-14T04:11:58;17.80;82.00
52513;DHT22;38422;53.172;6.974;2023-06-14T04:14:23;17.80;82.10
52513;DHT22;38422;53.172;6.974;2023-06-14T04:16:49;17.80;82.30
52513;DHT22;38422;53.172;6.974;2023-06-14T04:19:16;17.80;82.40
52513;DHT22;38422;53.172;6.974;2023-06-14T04:21:41;17.80;82.70
52513;DHT22;38422;53.172;6.974;2023-06-14T04:24:10;17.80;82.70
52513;DHT22;38422;53.172;6.974;2023-06-14T04:26:43;17.80;83.10
52513;DHT22;38422;53.172;6.974;2023-06-14T04:29:16;17.70;83.10
52513;DHT22;38422;53.172;6.974;2023-06-14T04:31:46;17.80;83.10
52513;DHT22;38422;53.172;6.974;2023-06-14T04:34:12;17.80;83.20
52513;DHT22;38422;53.172;6.974;2023-06-14T04:36:42;17.80;83.30
52513;DHT22;38422;53.172;6.974;2023-06-14T04:39:18;17.80;83.40
52513;DHT22;38422;53.172;6.974;2023-06-14T04:41:44;17.80;83.70
52513;DHT22;38422;53.172;6.974;2023-06-14T04:44:10;17.80;83.80
52513;DHT22;38422;53.172;6.974;2023-06-14T04:46:39;17.80;83.60
52513;DHT22;38422;53.172;6.974;2023-06-14T04:49:17;17.80;83.80
52513;DHT22;38422;53.172;6.974;2023-06-14T04:51:46;17.80;83.80
52513;DHT22;38422;53.172;6.974;2023-06-14T04:54:16;17.80;83.80
52513;DHT22;38422;53.172;6.974;2023-06-14T04:56:44;17.90;84.00
52513;DHT22;38422;53.172;6.974;2023-06-14T04:59:10;17.90;84.00
52513;DHT22;38422;53.172;6.974;2023-06-14T05:01:40;17.90;84.00
52513;DHT22;38422;53.172;6.974;2023-06-14T05:04:06;17.90;84.20
52513;DHT22;38422;53.172;6.974;2023-06-14T05:06:32;17.90;84.20
52513;DHT22;38422;53.172;6.974;2023-06-14T05:08:58;18.00;84.20
52513;DHT22;38422;53.172;6.974;2023-06-14T05:11:24;18.00;84.10
52513;DHT22;38422;53.172;6.974;2023-06-14T05:13:50;18.00;84.30
52513;DHT22;38422;53.172;6.974;2023-06-14T05:16:16;18.00;84.50
52513;DHT22;38422;53.172;6.974;2023-06-14T05:18:45;18.00;84.50
52513;DHT22;38422;53.172;6.974;2023-06-14T05:21:13;18.00;84.70
52513;DHT22;38422;53.172;6.974;2023-06-14T05:23:38;18.00;84.50
52513;DHT22;38422;53.172;6.974;2023-06-14T05:26:04;17.90;84.80
52513;DHT22;38422;53.172;6.974;2023-06-14T05:28:32;18.00;84.90
52513;DHT22;38422;53.172;6.974;2023-06-14T05:30:57;18.00;85.00
52513;DHT22;38422;53.172;6.974;2023-06-14T05:33:23;18.00;85.20
52513;DHT22;38422;53.172;6.974;2023-06-14T05:35:49;18.00;85.10
52513;DHT22;38422;53.172;6.974;2023-06-14T05:38:18;18.10;85.10
52513;DHT22;38422;53.172;6.974;2023-06-14T05:40:43;18.10;84.90
52513;DHT22;38422;53.172;6.974;2023-06-14T05:43:09;18.10;85.00
52513;DHT22;38422;53.172;6.974;2023-06-14T05:45:36;18.20;84.90
52513;DHT22;38422;53.172;6.974;2023-06-14T05:48:01;18.20;84.80
52513;DHT22;38422;53.172;6.974;2023-06-14T05:50:27;18.30;84.70
52513;DHT22;38422;53.172;6.974;2023-06-14T05:52:53;18.20;84.60
52513;DHT22;38422;53.172;6.974;2023-06-14T05:55:19;18.30;84.70
52513;DHT22;38422;53.172;6.974;2023-06-14T05:57:45;18.30;84.70
52513;DHT22;38422;53.172;6.974;2023-06-14T06:00:11;18.40;84.80
52513;DHT22;38422;53.172;6.974;2023-06-14T06:02:41;18.40;84.80
52513;DHT22;38422;53.172;6.974;2023-06-14T06:05:09;18.40;84.70
52513;DHT22;38422;53.172;6.974;2023-06-14T06:07:36;18.40;84.70
52513;DHT22;38422;53.172;6.974;2023-06-14T06:10:02;18.40;84.70
52513;DHT22;38422;53.172;6.974;2023-06-14T06:12:27;18.50;84.70
52513;DHT22;38422;53.172;6.974;2023-06-14T06:14:53;18.50;84.50
52513;DHT22;38422;53.172;6.974;2023-06-14T06:17:19;18.60;84.30
52513;DHT22;38422;53.172;6.974;2023-06-14T06:19:44;18.60;84.50
52513;DHT22;38422;53.172;6.974;2023-06-14T06:22:11;18.60;84.50
52513;DHT22;38422;53.172;6.974;2023-06-14T06:24:37;18.60;84.40
52513;DHT22;38422;53.172;6.974;2023-06-14T06:27:03;18.70;84.50
52513;DHT22;38422;53.172;6.974;2023-06-14T06:29:28;18.70;84.40
52513;DHT22;38422;53.172;6.974;2023-06-14T06:31:54;18.80;84.40
52513;DHT22;38422;53.172;6.974;2023-06-14T06:34:21;18.80;84.30
52513;DHT22;38422;53.172;6.974;2023-06-14T06:36:47;18.90;84.10
52513;DHT22;38422;53.172;6.974;2023-06-14T06:39:13;18.90;83.70
52513;DHT22;38422;53.172;6.974;2023-06-14T06:41:40;19.00;83.50
52513;DHT22;38422;53.172;6.974;2023-06-14T06:44:07;19.00;83.30
52513;DHT22;38422;53.172;6.974;2023-06-14T06:46:33;19.10;83.60
52513;DHT22;38422;53.172;6.974;2023-06-14T06:48:59;19.10;83.00
52513;DHT22;38422;53.172;6.974;2023-06-14T06:51:25;19.20;82.70
52513;DHT22;38422;53.172;6.974;2023-06-14T06:53:54;19.20;82.70
52513;DHT22;38422;53.172;6.974;2023-06-14T06:56:21;19.30;82.60
52513;DHT22;38422;53.172;6.974;2023-06-14T06:58:51;19.40;82.50
52513;DHT22;38422;53.172;6.974;2023-06-14T07:01:18;19.40;82.20
52513;DHT22;38422;53.172;6.974;2023-06-14T07:03:45;19.50;82.30
52513;DHT22;38422;53.172;6.974;2023-06-14T07:06:11;19.60;82.10
52513;DHT22;38422;53.172;6.974;2023-06-14T07:08:40;19.70;81.60
52513;DHT22;38422;53.172;6.974;2023-06-14T07:11:06;19.70;81.30
52513;DHT22;38422;53.172;6.974;2023-06-14T07:13:32;19.70;80.80
52513;DHT22;38422;53.172;6.974;2023-06-14T07:15:59;19.80;80.40
52513;DHT22;38422;53.172;6.974;2023-06-14T07:18:26;19.80;80.20
52513;DHT22;38422;53.172;6.974;2023-06-14T07:20:55;19.80;80.10
52513;DHT22;38422;53.172;6.974;2023-06-14T07:23:22;19.90;80.20
52513;DHT22;38422;53.172;6.974;2023-06-14T07:25:48;20.00;80.40
52513;DHT22;38422;53.172;6.974;2023-06-14T07:28:16;20.00;79.90
52513;DHT22;38422;53.172;6.974;2023-06-14T07:30:42;20.10;79.40
52513;DHT22;38422;53.172;6.974;2023-06-14T07:33:08;20.20;79.20
52513;DHT22;38422;53.172;6.974;2023-06-14T07:35:34;20.20;79.10
52513;DHT22;38422;53.172;6.974;2023-06-14T07:38:00;20.30;79.20
52513;DHT22;38422;53.172;6.974;2023-06-14T07:40:25;20.40;79.00
52513;DHT22;38422;53.172;6.974;2023-06-14T07:42:51;20.50;78.50
52513;DHT22;38422;53.172;6.974;2023-06-14T07:45:19;20.60;78.10
52513;DHT22;38422;53.172;6.974;2023-06-14T07:47:45;20.60;77.80
52513;DHT22;38422;53.172;6.974;2023-06-14T07:50:11;20.70;77.50
52513;DHT22;38422;53.172;6.974;2023-06-14T07:52:37;20.80;76.80
52513;DHT22;38422;53.172;6.974;2023-06-14T07:55:03;20.80;77.10
52513;DHT22;38422;53.172;6.974;2023-06-14T07:57:28;20.90;76.90
52513;DHT22;38422;53.172;6.974;2023-06-14T07:59:54;20.90;77.00
52513;DHT22;38422;53.172;6.974;2023-06-14T08:02:20;21.00;76.30
52513;DHT22;38422;53.172;6.974;2023-06-14T08:04:46;21.10;76.30
52513;DHT22;38422;53.172;6.974;2023-06-14T08:07:14;21.20;76.30
52513;DHT22;38422;53.172;6.974;2023-06-14T08:09:40;21.30;76.10
52513;DHT22;38422;53.172;6.974;2023-06-14T08:12:06;21.30;75.80
52513;DHT22;38422;53.172;6.974;2023-06-14T08:14:35;21.40;75.60
52513;DHT22;38422;53.172;6.974;2023-06-14T08:17:00;21.50;75.00
52513;DHT22;38422;53.172;6.974;2023-06-14T08:19:26;21.60;74.70
52513;DHT22;38422;53.172;6.974;2023-06-14T08:21:52;21.60;74.60
52513;DHT22;38422;53.172;6.974;2023-06-14T08:24:21;21.70;74.20
52513;DHT22;38422;53.172;6.974;2023-06-14T08:26:50;21.80;73.90
52513;DHT22;38422;53.172;6.974;2023-06-14T08:29:16;21.80;73.90
52513;DHT22;38422;53.172;6.974;2023-06-14T08:31:41;21.90;74.00
52513;DHT22;38422;53.172;6.974;2023-06-14T08:34:07;21.90;73.90
52513;DHT22;38422;53.172;6.974;2023-06-14T08:36:33;22.00;74.40
52513;DHT22;38422;53.172;6.974;2023-06-14T08:38:58;22.10;74.20
52513;DHT22;38422;53.172;6.974;2023-06-14T08:41:24;22.20;74.20
52513;DHT22;38422;53.172;6.974;2023-06-14T08:43:51;22.30;73.70
52513;DHT22;38422;53.172;6.974;2023-06-14T08:46:18;22.30;73.20
52513;DHT22;38422;53.172;6.974;2023-06-14T08:48:51;22.40;72.50
52513;DHT22;38422;53.172;6.974;2023-06-14T08:51:21;22.50;72.20
52513;DHT22;38422;53.172;6.974;2023-06-14T08:53:53;22.50;72.30
52513;DHT22;38422;53.172;6.974;2023-06-14T08:56:27;22.60;72.10
52513;DHT22;38422;53.172;6.974;2023-06-14T08:58:59;22.70;72.10
52513;DHT22;38422;53.172;6.974;2023-06-14T09:01:36;22.80;71.50
52513;DHT22;38422;53.172;6.974;2023-06-14T09:04:02;22.90;71.30
52513;DHT22;38422;53.172;6.974;2023-06-14T09:06:31;23.00;71.30
52513;DHT22;38422;53.172;6.974;2023-06-14T09:08:57;23.10;70.70
52513;DHT22;38422;53.172;6.974;2023-06-14T09:11:23;23.20;70.70
52513;DHT22;38422;53.172;6.974;2023-06-14T09:13:49;23.20;69.90
52513;DHT22;38422;53.172;6.974;2023-06-14T09:16:16;23.30;70.00
52513;DHT22;38422;53.172;6.974;2023-06-14T09:18:43;23.40;69.70
52513;DHT22;38422;53.172;6.974;2023-06-14T09:21:11;23.50;69.70
52513;DHT22;38422;53.172;6.974;2023-06-14T09:23:46;23.60;69.30
52513;DHT22;38422;53.172;6.974;2023-06-14T09:26:13;23.80;68.40
52513;DHT22;38422;53.172;6.974;2023-06-14T09:28:43;23.90;69.20
52513;DHT22;38422;53.172;6.974;2023-06-14T09:31:14;24.00;67.90
52513;DHT22;38422;53.172;6.974;2023-06-14T09:33:48;24.20;67.80
52513;DHT22;38422;53.172;6.974;2023-06-14T09:36:18;24.30;66.80
52513;DHT22;38422;53.172;6.974;2023-06-14T09:39:00;24.50;67.90
52513;DHT22;38422;53.172;6.974;2023-06-14T09:41:39;24.70;66.70
52513;DHT22;38422;53.172;6.974;2023-06-14T09:44:06;24.90;66.80
52513;DHT22;38422;53.172;6.974;2023-06-14T09:46:33;25.10;66.20
52513;DHT22;38422;53.172;6.974;2023-06-14T09:49:00;25.30;66.00
52513;DHT22;38422;53.172;6.974;2023-06-14T09:51:27;25.50;65.60
52513;DHT22;38422;53.172;6.974;2023-06-14T09:53:57;25.70;65.30
52513;DHT22;38422;53.172;6.974;2023-06-14T09:56:44;26.00;64.90
52513;DHT22;38422;53.172;6.974;2023-06-14T09:59:10;26.20;64.40
52513;DHT22;38422;53.172;6.974;2023-06-14T10:01:42;26.50;64.50
52513;DHT22;38422;53.172;6.974;2023-06-14T10:04:09;26.70;63.30
52513;DHT22;38422;53.172;6.974;2023-06-14T10:06:43;26.90;63.30
52513;DHT22;38422;53.172;6.974;2023-06-14T10:09:12;27.10;62.00
52513;DHT22;38422;53.172;6.974;2023-06-14T10:11:37;27.30;62.20
52513;DHT22;38422;53.172;6.974;2023-06-14T10:14:12;27.40;60.80
52513;DHT22;38422;53.172;6.974;2023-06-14T10:17:03;27.50;62.00
52513;DHT22;38422;53.172;6.974;2023-06-14T10:19:37;27.60;60.40
52513;DHT22;38422;53.172;6.974;2023-06-14T10:22:23;27.70;61.50
52513;DHT22;38422;53.172;6.974;2023-06-14T10:24:50;27.90;60.80
52513;DHT22;38422;53.172;6.974;2023-06-14T10:27:17;28.00;60.80
52513;DHT22;38422;53.172;6.974;2023-06-14T10:32:18;28.20;59.30
52513;DHT22;38422;53.172;6.974;2023-06-14T10:34:56;28.30;59.80
52513;DHT22;38422;53.172;6.974;2023-06-14T10:37:23;28.30;58.80
52513;DHT22;38422;53.172;6.974;2023-06-14T10:39:50;28.30;59.90
52513;DHT22;38422;53.172;6.974;2023-06-14T10:42:16;28.40;59.80
52513;DHT22;38422;53.172;6.974;2023-06-14T10:44:44;28.60;59.90
52513;DHT22;38422;53.172;6.974;2023-06-14T10:47:20;28.80;59.60
52513;DHT22;38422;53.172;6.974;2023-06-14T10:52:28;28.90;58.20
52513;DHT22;38422;53.172;6.974;2023-06-14T10:55:14;28.90;57.80
52513;DHT22;38422;53.172;6.974;2023-06-14T10:57:48;29.20;57.00
52513;DHT22;38422;53.172;6.974;2023-06-14T11:00:18;29.50;56.70
52513;DHT22;38422;53.172;6.974;2023-06-14T11:05:55;29.40;55.80
52513;DHT22;38422;53.172;6.974;2023-06-14T11:11:16;29.30;55.70
52513;DHT22;38422;53.172;6.974;2023-06-14T11:13:45;29.10;56.30
52513;DHT22;38422;53.172;6.974;2023-06-14T11:16:15;29.10;56.30
52513;DHT22;38422;53.172;6.974;2023-06-14T11:18:41;28.80;56.50
52513;DHT22;38422;53.172;6.974;2023-06-14T11:21:07;28.50;56.90
52513;DHT22;38422;53.172;6.974;2023-06-14T11:23:36;28.60;57.00
52513;DHT22;38422;53.172;6.974;2023-06-14T11:26:03;28.60;56.90
52513;DHT22;38422;53.172;6.974;2023-06-14T11:28:39;28.90;56.60
52513;DHT22;38422;53.172;6.974;2023-06-14T11:31:06;29.20;56.50
52513;DHT22;38422;53.172;6.974;2023-06-14T11:33:32;29.50;56.30
52513;DHT22;38422;53.172;6.974;2023-06-14T11:36:03;29.80;56.10
52513;DHT22;38422;53.172;6.974;2023-06-14T11:38:35;30.00;55.70
52513;DHT22;38422;53.172;6.974;2023-06-14T11:41:02;30.20;55.20
52513;DHT22;38422;53.172;6.974;2023-06-14T11:43:27;30.30;55.20
52513;DHT22;38422;53.172;6.974;2023-06-14T11:45:54;30.50;55.60
52513;DHT22;38422;53.172;6.974;2023-06-14T11:48:20;30.70;54.90
52513;DHT22;38422;53.172;6.974;2023-06-14T11:50:49;30.90;54.80
52513;DHT22;38422;53.172;6.974;2023-06-14T11:53:15;31.10;54.50
52513;DHT22;38422;53.172;6.974;2023-06-14T11:55:42;31.30;54.60
52513;DHT22;38422;53.172;6.974;2023-06-14T11:58:10;31.30;53.50
52513;DHT22;38422;53.172;6.974;2023-06-14T12:00:38;31.40;54.70
52513;DHT22;38422;53.172;6.974;2023-06-14T12:03:03;31.30;54.20
52513;DHT22;38422;53.172;6.974;2023-06-14T12:05:29;31.40;54.40
52513;DHT22;38422;53.172;6.974;2023-06-14T12:07:59;31.40;53.90
52513;DHT22;38422;53.172;6.974;2023-06-14T12:10:26;31.50;54.00
52513;DHT22;38422;53.172;6.974;2023-06-14T12:12:57;31.60;53.40
52513;DHT22;38422;53.172;6.974;2023-06-14T12:15:24;31.70;52.70
52513;DHT22;38422;53.172;6.974;2023-06-14T12:17:49;31.60;52.90
52513;DHT22;38422;53.172;6.974;2023-06-14T12:20:16;31.60;53.10
52513;DHT22;38422;53.172;6.974;2023-06-14T12:22:56;31.40;52.60
52513;DHT22;38422;53.172;6.974;2023-06-14T12:25:30;31.10;52.50
52513;DHT22;38422;53.172;6.974;2023-06-14T12:27:57;31.10;52.90
52513;DHT22;38422;53.172;6.974;2023-06-14T12:30:23;31.30;53.20
52513;DHT22;38422;53.172;6.974;2023-06-14T12:32:49;31.80;53.10
52513;DHT22;38422;53.172;6.974;2023-06-14T12:35:20;32.00;53.10
52513;DHT22;38422;53.172;6.974;2023-06-14T12:37:46;32.20;51.80
52513;DHT22;38422;53.172;6.974;2023-06-14T12:40:12;32.20;52.80
52513;DHT22;38422;53.172;6.974;2023-06-14T12:42:38;32.40;52.60
52513;DHT22;38422;53.172;6.974;2023-06-14T12:45:04;32.60;52.50
52513;DHT22;38422;53.172;6.974;2023-06-14T12:47:30;32.80;52.20
52513;DHT22;38422;53.172;6.974;2023-06-14T12:49:56;33.00;51.70
52513;DHT22;38422;53.172;6.974;2023-06-14T12:52:24;33.20;51.60
52513;DHT22;38422;53.172;6.974;2023-06-14T12:54:50;33.20;51.20
52513;DHT22;38422;53.172;6.974;2023-06-14T12:57:16;32.90;50.90
52513;DHT22;38422;53.172;6.974;2023-06-14T12:59:42;32.90;51.20
52513;DHT22;38422;53.172;6.974;2023-06-14T13:02:17;32.40;51.50
52513;DHT22;38422;53.172;6.974;2023-06-14T13:04:44;32.40;51.50
52513;DHT22;38422;53.172;6.974;2023-06-14T13:07:09;32.60;51.50
52513;DHT22;38422;53.172;6.974;2023-06-14T13:09:36;32.60;50.80
52513;DHT22;38422;53.172;6.974;2023-06-14T13:12:02;32.40;51.00
52513;DHT22;38422;53.172;6.974;2023-06-14T13:14:28;31.90;51.40
52513;DHT22;38422;53.172;6.974;2023-06-14T13:16:54;31.40;51.30
52513;DHT22;38422;53.172;6.974;2023-06-14T13:19:21;31.10;51.50
52513;DHT22;38422;53.172;6.974;2023-06-14T13:21:47;30.80;52.10
52513;DHT22;38422;53.172;6.974;2023-06-14T13:24:13;30.60;52.50
52513;DHT22;38422;53.172;6.974;2023-06-14T13:26:39;30.30;52.70
52513;DHT22;38422;53.172;6.974;2023-06-14T13:29:05;30.10;52.80
52513;DHT22;38422;53.172;6.974;2023-06-14T13:31:31;30.00;53.30
52513;DHT22;38422;53.172;6.974;2023-06-14T13:33:56;30.30;54.30
52513;DHT22;38422;53.172;6.974;2023-06-14T13:36:22;30.80;53.50
52513;DHT22;38422;53.172;6.974;2023-06-14T13:38:48;31.30;53.30
52513;DHT22;38422;53.172;6.974;2023-06-14T13:41:13;31.80;52.90
52513;DHT22;38422;53.172;6.974;2023-06-14T13:43:39;32.40;52.60
52513;DHT22;38422;53.172;6.974;2023-06-14T13:46:05;32.50;52.20
52513;DHT22;38422;53.172;6.974;2023-06-14T13:48:31;32.40;51.50
52513;DHT22;38422;53.172;6.974;2023-06-14T13:50:59;32.20;51.90
52513;DHT22;38422;53.172;6.974;2023-06-14T13:53:25;31.80;52.00
52513;DHT22;38422;53.172;6.974;2023-06-14T13:55:51;31.40;52.00
52513;DHT22;38422;53.172;6.974;2023-06-14T13:58:18;31.10;52.10
52513;DHT22;38422;53.172;6.974;2023-06-14T14:00:44;30.80;52.50
52513;DHT22;38422;53.172;6.974;2023-06-14T14:03:10;30.70;52.80
52513;DHT22;38422;53.172;6.974;2023-06-14T14:05:36;31.00;53.20
52513;DHT22;38422;53.172;6.974;2023-06-14T14:08:03;31.40;53.00
52513;DHT22;38422;53.172;6.974;2023-06-14T14:10:29;31.90;52.40
52513;DHT22;38422;53.172;6.974;2023-06-14T14:12:55;32.00;51.90
52513;DHT22;38422;53.172;6.974;2023-06-14T14:15:20;32.50;52.00
52513;DHT22;38422;53.172;6.974;2023-06-14T14:17:46;32.90;51.80
52513;DHT22;38422;53.172;6.974;2023-06-14T14:20:12;33.20;50.80
52513;DHT22;38422;53.172;6.974;2023-06-14T14:22:42;33.40;50.30
52513;DHT22;38422;53.172;6.974;2023-06-14T14:25:09;33.40;50.30
52513;DHT22;38422;53.172;6.974;2023-06-14T14:27:34;33.00;50.40
52513;DHT22;38422;53.172;6.974;2023-06-14T14:30:01;32.70;50.70
52513;DHT22;38422;53.172;6.974;2023-06-14T14:32:27;32.30;50.80
52513;DHT22;38422;53.172;6.974;2023-06-14T14:34:55;32.10;51.30
52513;DHT22;38422;53.172;6.974;2023-06-14T14:37:21;31.90;50.90
52513;DHT22;38422;53.172;6.974;2023-06-14T14:39:47;31.60;51.10
52513;DHT22;38422;53.172;6.974;2023-06-14T14:42:12;31.50;51.50
52513;DHT22;38422;53.172;6.974;2023-06-14T14:44:39;31.40;51.70
52513;DHT22;38422;53.172;6.974;2023-06-14T14:47:05;31.70;51.70
52513;DHT22;38422;53.172;6.974;2023-06-14T14:49:31;32.10;51.50
52513;DHT22;38422;53.172;6.974;2023-06-14T14:51:57;32.20;50.20
52513;DHT22;38422;53.172;6.974;2023-06-14T14:54:23;32.40;50.60
52513;DHT22;38422;53.172;6.974;2023-06-14T14:56:51;32.80;50.40
52513;DHT22;38422;53.172;6.974;2023-06-14T14:59:16;32.90;50.20
52513;DHT22;38422;53.172;6.974;2023-06-14T15:01:42;33.30;50.00
52513;DHT22;38422;53.172;6.974;2023-06-14T15:04:08;33.60;49.90
52513;DHT22;38422;53.172;6.974;2023-06-14T15:06:34;33.80;49.70
52513;DHT22;38422;53.172;6.974;2023-06-14T15:09:01;33.80;49.60
52513;DHT22;38422;53.172;6.974;2023-06-14T15:11:27;33.60;49.60
52513;DHT22;38422;53.172;6.974;2023-06-14T15:13:53;33.50;49.80
52513;DHT22;38422;53.172;6.974;2023-06-14T15:16:19;33.10;49.50
52513;DHT22;38422;53.172;6.974;2023-06-14T15:18:45;32.70;49.60
52513;DHT22;38422;53.172;6.974;2023-06-14T15:21:12;32.50;50.10
52513;DHT22;38422;53.172;6.974;2023-06-14T15:23:39;32.70;50.40
52513;DHT22;38422;53.172;6.974;2023-06-14T15:26:05;33.00;50.50
52513;DHT22;38422;53.172;6.974;2023-06-14T15:28:30;33.40;50.30
52513;DHT22;38422;53.172;6.974;2023-06-14T15:30:59;33.60;50.10
52513;DHT22;38422;53.172;6.974;2023-06-14T15:33:25;33.80;49.90
52513;DHT22;38422;53.172;6.974;2023-06-14T15:35:51;34.10;50.20
52513;DHT22;38422;53.172;6.974;2023-06-14T15:38:17;34.30;49.80
52513;DHT22;38422;53.172;6.974;2023-06-14T15:40:43;34.40;49.60
52513;DHT22;38422;53.172;6.974;2023-06-14T15:43:09;34.50;49.00
52513;DHT22;38422;53.172;6.974;2023-06-14T15:45:35;34.20;49.20